sensor_id;sensor_type;location;lat;lon;timestamp;P1;durP1;ratioP1;P2;durP2;ratioP2
19221;SDS011;9745;50.828;4.378;2022-12-07T00:01:20;19.63;;;12.13;;
19221;SDS011;9745;50.828;4.378;2022-12-07T00:03:46;18.73;;;12.00;;
19221;SDS011;9745;50.828;4.378;2022-12-07T00:06:13;18.57;;;12.40;;
19221;SDS011;9745;50.828;4.378;2022-12-07T00:08:39;24.47;;;13.10;;
19221;SDS011;9745;50.828;4.378;2022-12-07T00:11:06;18.97;;;12.70;;
19221;SDS011;9745;50.828;4.378;2022-12-07T00:13:34;22.90;;;12.57;;
19221;SDS011;9745;50.828;4.378;2022-12-07T00:16:04;25.43;;;13.50;;
19221;SDS011;9745;50.828;4.378;2022-12-07T00:18:30;23.73;;;13.40;;
19221;SDS011;9745;50.828;4.378;2022-12-07T00:21:03;20.90;;;12.57;;
19221;SDS011;9745;50.828;4.378;2022-12-07T00:23:32;23.40;;;12.90;;
19221;SDS011;9745;50.828;4.378;2022-12-07T00:28:55;22.73;;;13.17;;
19221;SDS011;9745;50.828;4.378;2022-12-07T00:31:27;19.90;;;12.53;;
19221;SDS011;9745;50.828;4.378;2022-12-07T00:33:58;22.87;;;13.40;;
19221;SDS011;9745;50.828;4.378;2022-12-07T00:36:26;22.93;;;14.40;;
19221;SDS011;9745;50.828;4.378;2022-12-07T00:38:53;19.90;;;14.03;;
19221;SDS011;9745;50.828;4.378;2022-12-07T00:41:21;22.80;;;13.67;;
19221;SDS011;9745;50.828;4.378;2022-12-07T00:43:47;25.87;;;15.73;;
19221;SDS011;9745;50.828;4.378;2022-12-07T00:46:14;25.07;;;14.93;;
19221;SDS011;9745;50.828;4.378;2022-12-07T00:48:40;27.30;;;15.13;;
19221;SDS011;9745;50.828;4.378;2022-12-07T00:51:07;25.80;;;14.30;;
19221;SDS011;9745;50.828;4.378;2022-12-07T00:53:34;25.23;;;13.87;;
19221;SDS011;9745;50.828;4.378;2022-12-07T00:56:19;26.53;;;15.47;;
19221;SDS011;9745;50.828;4.378;2022-12-07T01:01:17;22.97;;;14.33;;
19221;SDS011;9745;50.828;4.378;2022-12-07T01:03:46;26.00;;;14.37;;
19221;SDS011;9745;50.828;4.378;2022-12-07T01:06:16;24.80;;;14.17;;
19221;SDS011;9745;50.828;4.378;2022-12-07T01:08:42;21.30;;;14.17;;
19221;SDS011;9745;50.828;4.378;2022-12-07T01:11:09;24.67;;;14.87;;
19221;SDS011;9745;50.828;4.378;2022-12-07T01:13:37;24.90;;;13.63;;
19221;SDS011;9745;50.828;4.378;2022-12-07T01:16:03;22.70;;;13.80;;
19221;SDS011;9745;50.828;4.378;2022-12-07T01:18:30;20.83;;;13.23;;
19221;SDS011;9745;50.828;4.378;2022-12-07T01:21:01;23.00;;;13.97;;
19221;SDS011;9745;50.828;4.378;2022-12-07T01:23:27;21.83;;;13.73;;
19221;SDS011;9745;50.828;4.378;2022-12-07T01:25:57;26.70;;;13.93;;
19221;SDS011;9745;50.828;4.378;2022-12-07T01:28:23;23.00;;;13.83;;
19221;SDS011;9745;50.828;4.378;2022-12-07T01:31:00;21.73;;;13.93;;
19221;SDS011;9745;50.828;4.378;2022-12-07T01:33:30;23.37;;;13.80;;
19221;SDS011;9745;50.828;4.378;2022-12-07T01:36:08;26.30;;;14.97;;
19221;SDS011;9745;50.828;4.378;2022-12-07T01:38:51;24.83;;;14.77;;
19221;SDS011;9745;50.828;4.378;2022-12-07T01:41:17;25.30;;;14.80;;
19221;SDS011;9745;50.828;4.378;2022-12-07T01:46:28;27.33;;;14.30;;
19221;SDS011;9745;50.828;4.378;2022-12-07T01:48:56;26.20;;;15.30;;
19221;SDS011;9745;50.828;4.378;2022-12-07T01:51:22;26.17;;;15.03;;
19221;SDS011;9745;50.828;4.378;2022-12-07T01:53:48;27.27;;;15.37;;
19221;SDS011;9745;50.828;4.378;2022-12-07T01:56:16;29.93;;;16.17;;
19221;SDS011;9745;50.828;4.378;2022-12-07T01:58:44;23.87;;;14.37;;
19221;SDS011;9745;50.828;4.378;2022-12-07T02:01:10;25.43;;;14.97;;
19221;SDS011;9745;50.828;4.378;2022-12-07T02:03:37;27.70;;;16.27;;
19221;SDS011;9745;50.828;4.378;2022-12-07T02:06:05;22.20;;;14.80;;
19221;SDS011;9745;50.828;4.378;2022-12-07T02:08:32;24.80;;;15.10;;
19221;SDS011;9745;50.828;4.378;2022-12-07T02:11:06;27.33;;;14.67;;
19221;SDS011;9745;50.828;4.378;2022-12-07T02:13:34;21.60;;;14.27;;
19221;SDS011;9745;50.828;4.378;2022-12-07T02:21:34;21.43;;;13.53;;
19221;SDS011;9745;50.828;4.378;2022-12-07T02:24:45;27.90;;;13.80;;
19221;SDS011;9745;50.828;4.378;2022-12-07T02:29:38;25.00;;;12.50;;
19221;SDS011;9745;50.828;4.378;2022-12-07T02:35:05;20.90;;;11.70;;
19221;SDS011;9745;50.828;4.378;2022-12-07T02:39:59;20.30;;;11.10;;
19221;SDS011;9745;50.828;4.378;2022-12-07T02:42:28;18.40;;;10.73;;
19221;SDS011;9745;50.828;4.378;2022-12-07T02:44:59;17.70;;;10.63;;
19221;SDS011;9745;50.828;4.378;2022-12-07T02:47:26;16.90;;;10.50;;
19221;SDS011;9745;50.828;4.378;2022-12-07T02:49:53;16.33;;;11.00;;
19221;SDS011;9745;50.828;4.378;2022-12-07T02:52:19;18.07;;;10.77;;
19221;SDS011;9745;50.828;4.378;2022-12-07T02:54:45;16.27;;;10.13;;
19221;SDS011;9745;50.828;4.378;2022-12-07T03:00:06;15.20;;;9.03;;
19221;SDS011;9745;50.828;4.378;2022-12-07T03:02:42;16.27;;;9.53;;
19221;SDS011;9745;50.828;4.378;2022-12-07T03:05:20;15.87;;;9.03;;
19221;SDS011;9745;50.828;4.378;2022-12-07T03:10:24;17.80;;;9.73;;
19221;SDS011;9745;50.828;4.378;2022-12-07T03:15:27;15.67;;;9.13;;
19221;SDS011;9745;50.828;4.378;2022-12-07T03:17:55;16.67;;;10.43;;
19221;SDS011;9745;50.828;4.378;2022-12-07T03:20:23;15.37;;;9.70;;
19221;SDS011;9745;50.828;4.378;2022-12-07T03:22:50;17.80;;;11.87;;
19221;SDS011;9745;50.828;4.378;2022-12-07T03:25:17;16.40;;;10.60;;
19221;SDS011;9745;50.828;4.378;2022-12-07T03:27:49;18.57;;;10.93;;
19221;SDS011;9745;50.828;4.378;2022-12-07T03:30:20;16.83;;;9.83;;
19221;SDS011;9745;50.828;4.378;2022-12-07T03:32:49;15.63;;;10.67;;
19221;SDS011;9745;50.828;4.378;2022-12-07T03:35:17;16.20;;;9.63;;
19221;SDS011;9745;50.828;4.378;2022-12-07T03:37:58;16.73;;;10.77;;
19221;SDS011;9745;50.828;4.378;2022-12-07T03:42:51;16.70;;;11.03;;
19221;SDS011;9745;50.828;4.378;2022-12-07T03:45:18;16.30;;;10.67;;
19221;SDS011;9745;50.828;4.378;2022-12-07T03:48:07;18.87;;;10.73;;
19221;SDS011;9745;50.828;4.378;2022-12-07T03:50:32;15.73;;;10.37;;
19221;SDS011;9745;50.828;4.378;2022-12-07T03:53:08;13.73;;;9.67;;
19221;SDS011;9745;50.828;4.378;2022-12-07T03:55:35;18.63;;;10.30;;
19221;SDS011;9745;50.828;4.378;2022-12-07T03:58:07;18.07;;;9.47;;
19221;SDS011;9745;50.828;4.378;2022-12-07T04:00:35;16.50;;;9.93;;
19221;SDS011;9745;50.828;4.378;2022-12-07T04:03:01;18.43;;;9.90;;
19221;SDS011;9745;50.828;4.378;2022-12-07T04:05:27;16.10;;;10.03;;
19221;SDS011;9745;50.828;4.378;2022-12-07T04:07:53;19.27;;;10.37;;
19221;SDS011;9745;50.828;4.378;2022-12-07T04:10:19;16.40;;;9.97;;
19221;SDS011;9745;50.828;4.378;2022-12-07T04:12:45;19.97;;;10.97;;
19221;SDS011;9745;50.828;4.378;2022-12-07T04:15:11;15.40;;;10.27;;
19221;SDS011;9745;50.828;4.378;2022-12-07T04:17:48;15.83;;;9.83;;
19221;SDS011;9745;50.828;4.378;2022-12-07T04:20:16;16.90;;;10.27;;
19221;SDS011;9745;50.828;4.378;2022-12-07T04:22:42;16.00;;;9.97;;
19221;SDS011;9745;50.828;4.378;2022-12-07T04:25:08;20.70;;;10.80;;
19221;SDS011;9745;50.828;4.378;2022-12-07T04:27:37;16.43;;;10.20;;
19221;SDS011;9745;50.828;4.378;2022-12-07T04:30:03;13.20;;;9.73;;
19221;SDS011;9745;50.828;4.378;2022-12-07T04:32:30;22.23;;;11.27;;
19221;SDS011;9745;50.828;4.378;2022-12-07T04:35:01;25.43;;;11.93;;
19221;SDS011;9745;50.828;4.378;2022-12-07T04:37:30;17.33;;;11.30;;
19221;SDS011;9745;50.828;4.378;2022-12-07T04:39:56;23.57;;;12.03;;
19221;SDS011;9745;50.828;4.378;2022-12-07T04:42:25;24.37;;;12.60;;
19221;SDS011;9745;50.828;4.378;2022-12-07T04:44:51;23.97;;;13.33;;
19221;SDS011;9745;50.828;4.378;2022-12-07T04:47:20;25.00;;;12.70;;
19221;SDS011;9745;50.828;4.378;2022-12-07T04:49:49;22.33;;;13.70;;
19221;SDS011;9745;50.828;4.378;2022-12-07T04:52:15;21.93;;;14.10;;
19221;SDS011;9745;50.828;4.378;2022-12-07T04:54:44;20.83;;;13.50;;
19221;SDS011;9745;50.828;4.378;2022-12-07T04:57:10;18.70;;;12.00;;
19221;SDS011;9745;50.828;4.378;2022-12-07T04:59:36;22.97;;;11.87;;
19221;SDS011;9745;50.828;4.378;2022-12-07T05:02:02;21.20;;;12.73;;
19221;SDS011;9745;50.828;4.378;2022-12-07T05:04:28;22.23;;;12.13;;
19221;SDS011;9745;50.828;4.378;2022-12-07T05:06:56;23.30;;;12.00;;
19221;SDS011;9745;50.828;4.378;2022-12-07T05:09:24;19.97;;;11.97;;
19221;SDS011;9745;50.828;4.378;2022-12-07T05:11:50;17.60;;;11.13;;
19221;SDS011;9745;50.828;4.378;2022-12-07T05:14:17;15.10;;;11.00;;
19221;SDS011;9745;50.828;4.378;2022-12-07T05:16:47;22.40;;;10.67;;
19221;SDS011;9745;50.828;4.378;2022-12-07T05:19:13;17.27;;;10.77;;
19221;SDS011;9745;50.828;4.378;2022-12-07T05:21:40;22.50;;;11.30;;
19221;SDS011;9745;50.828;4.378;2022-12-07T05:24:06;18.20;;;11.00;;
19221;SDS011;9745;50.828;4.378;2022-12-07T05:26:32;18.67;;;11.17;;
19221;SDS011;9745;50.828;4.378;2022-12-07T05:28:59;17.43;;;11.50;;
19221;SDS011;9745;50.828;4.378;2022-12-07T05:31:25;18.57;;;11.23;;
19221;SDS011;9745;50.828;4.378;2022-12-07T05:33:52;20.87;;;10.97;;
19221;SDS011;9745;50.828;4.378;2022-12-07T05:36:18;19.03;;;11.47;;
19221;SDS011;9745;50.828;4.378;2022-12-07T05:38:44;18.30;;;11.53;;
19221;SDS011;9745;50.828;4.378;2022-12-07T05:41:11;17.73;;;11.53;;
19221;SDS011;9745;50.828;4.378;2022-12-07T05:43:58;18.33;;;11.57;;
19221;SDS011;9745;50.828;4.378;2022-12-07T05:46:24;21.50;;;11.23;;
19221;SDS011;9745;50.828;4.378;2022-12-07T05:48:50;24.50;;;9.73;;
19221;SDS011;9745;50.828;4.378;2022-12-07T05:51:16;20.23;;;9.97;;
19221;SDS011;9745;50.828;4.378;2022-12-07T05:53:49;17.50;;;11.20;;
19221;SDS011;9745;50.828;4.378;2022-12-07T05:56:15;17.13;;;10.67;;
19221;SDS011;9745;50.828;4.378;2022-12-07T05:58:41;14.77;;;10.03;;
19221;SDS011;9745;50.828;4.378;2022-12-07T06:01:26;19.93;;;10.90;;
19221;SDS011;9745;50.828;4.378;2022-12-07T06:03:52;19.13;;;10.93;;
19221;SDS011;9745;50.828;4.378;2022-12-07T06:06:18;17.73;;;10.60;;
19221;SDS011;9745;50.828;4.378;2022-12-07T06:08:47;17.97;;;11.13;;
19221;SDS011;9745;50.828;4.378;2022-12-07T06:11:21;15.23;;;10.27;;
19221;SDS011;9745;50.828;4.378;2022-12-07T06:14:05;17.00;;;9.33;;
19221;SDS011;9745;50.828;4.378;2022-12-07T06:16:31;18.87;;;9.13;;
19221;SDS011;9745;50.828;4.378;2022-12-07T06:19:07;15.77;;;9.20;;
19221;SDS011;9745;50.828;4.378;2022-12-07T06:21:33;12.80;;;8.13;;
19221;SDS011;9745;50.828;4.378;2022-12-07T06:23:59;12.30;;;8.30;;
19221;SDS011;9745;50.828;4.378;2022-12-07T06:26:25;14.20;;;8.30;;
19221;SDS011;9745;50.828;4.378;2022-12-07T06:28:54;16.17;;;7.70;;
19221;SDS011;9745;50.828;4.378;2022-12-07T06:31:22;14.87;;;7.97;;
19221;SDS011;9745;50.828;4.378;2022-12-07T06:33:48;12.73;;;7.27;;
19221;SDS011;9745;50.828;4.378;2022-12-07T06:36:14;13.63;;;8.67;;
19221;SDS011;9745;50.828;4.378;2022-12-07T06:38:43;13.67;;;8.20;;
19221;SDS011;9745;50.828;4.378;2022-12-07T06:41:09;14.40;;;7.97;;
19221;SDS011;9745;50.828;4.378;2022-12-07T06:43:41;15.33;;;8.40;;
19221;SDS011;9745;50.828;4.378;2022-12-07T06:46:36;12.20;;;7.80;;
19221;SDS011;9745;50.828;4.378;2022-12-07T06:49:05;12.00;;;8.23;;
19221;SDS011;9745;50.828;4.378;2022-12-07T06:51:37;13.03;;;7.80;;
19221;SDS011;9745;50.828;4.378;2022-12-07T06:54:10;14.77;;;7.30;;
19221;SDS011;9745;50.828;4.378;2022-12-07T06:56:39;12.77;;;7.40;;
19221;SDS011;9745;50.828;4.378;2022-12-07T06:59:05;14.87;;;7.60;;
19221;SDS011;9745;50.828;4.378;2022-12-07T07:01:31;12.90;;;7.67;;
19221;SDS011;9745;50.828;4.378;2022-12-07T07:03:58;18.80;;;8.27;;
19221;SDS011;9745;50.828;4.378;2022-12-07T07:06:24;9.97;;;6.83;;
19221;SDS011;9745;50.828;4.378;2022-12-07T07:08:53;14.70;;;7.90;;
19221;SDS011;9745;50.828;4.378;2022-12-07T07:11:19;13.37;;;8.37;;
19221;SDS011;9745;50.828;4.378;2022-12-07T07:13:45;22.83;;;8.63;;
19221;SDS011;9745;50.828;4.378;2022-12-07T07:16:11;16.37;;;7.90;;
19221;SDS011;9745;50.828;4.378;2022-12-07T07:18:37;16.17;;;8.80;;
19221;SDS011;9745;50.828;4.378;2022-12-07T07:21:06;11.97;;;7.93;;
19221;SDS011;9745;50.828;4.378;2022-12-07T07:23:32;14.07;;;8.27;;
19221;SDS011;9745;50.828;4.378;2022-12-07T07:25:58;13.30;;;8.27;;
19221;SDS011;9745;50.828;4.378;2022-12-07T07:28:24;18.30;;;9.33;;
19221;SDS011;9745;50.828;4.378;2022-12-07T07:30:50;16.40;;;8.40;;
19221;SDS011;9745;50.828;4.378;2022-12-07T07:33:16;16.43;;;10.13;;
19221;SDS011;9745;50.828;4.378;2022-12-07T07:35:45;16.50;;;8.80;;
19221;SDS011;9745;50.828;4.378;2022-12-07T07:38:12;14.50;;;9.50;;
19221;SDS011;9745;50.828;4.378;2022-12-07T07:40:38;15.37;;;8.93;;
19221;SDS011;9745;50.828;4.378;2022-12-07T07:43:13;18.73;;;10.03;;
19221;SDS011;9745;50.828;4.378;2022-12-07T07:45:39;17.53;;;9.43;;
19221;SDS011;9745;50.828;4.378;2022-12-07T07:48:05;14.17;;;8.60;;
19221;SDS011;9745;50.828;4.378;2022-12-07T07:50:32;14.17;;;9.43;;
19221;SDS011;9745;50.828;4.378;2022-12-07T07:52:59;20.30;;;9.63;;
19221;SDS011;9745;50.828;4.378;2022-12-07T07:55:27;16.40;;;9.27;;
19221;SDS011;9745;50.828;4.378;2022-12-07T07:57:53;19.67;;;10.37;;
19221;SDS011;9745;50.828;4.378;2022-12-07T08:00:20;17.80;;;8.67;;
19221;SDS011;9745;50.828;4.378;2022-12-07T08:02:46;14.27;;;7.87;;
19221;SDS011;9745;50.828;4.378;2022-12-07T08:05:12;15.47;;;7.47;;
19221;SDS011;9745;50.828;4.378;2022-12-07T08:07:38;14.60;;;7.40;;
19221;SDS011;9745;50.828;4.378;2022-12-07T08:10:04;15.50;;;7.93;;
19221;SDS011;9745;50.828;4.378;2022-12-07T08:12:31;13.47;;;7.83;;
19221;SDS011;9745;50.828;4.378;2022-12-07T08:14:57;16.37;;;8.30;;
19221;SDS011;9745;50.828;4.378;2022-12-07T08:17:23;13.60;;;8.10;;
19221;SDS011;9745;50.828;4.378;2022-12-07T08:19:49;12.73;;;8.07;;
19221;SDS011;9745;50.828;4.378;2022-12-07T08:22:15;18.67;;;9.30;;
19221;SDS011;9745;50.828;4.378;2022-12-07T08:24:41;15.47;;;9.43;;
19221;SDS011;9745;50.828;4.378;2022-12-07T08:27:07;18.90;;;10.47;;
19221;SDS011;9745;50.828;4.378;2022-12-07T08:29:33;16.60;;;9.93;;
19221;SDS011;9745;50.828;4.378;2022-12-07T08:31:59;18.63;;;10.50;;
19221;SDS011;9745;50.828;4.378;2022-12-07T08:34:26;16.90;;;9.87;;
19221;SDS011;9745;50.828;4.378;2022-12-07T08:36:54;16.07;;;10.07;;
19221;SDS011;9745;50.828;4.378;2022-12-07T08:39:20;22.67;;;11.17;;
19221;SDS011;9745;50.828;4.378;2022-12-07T08:41:46;22.03;;;10.80;;
19221;SDS011;9745;50.828;4.378;2022-12-07T08:44:12;19.87;;;10.60;;
19221;SDS011;9745;50.828;4.378;2022-12-07T08:46:44;19.07;;;10.87;;
19221;SDS011;9745;50.828;4.378;2022-12-07T08:49:12;16.57;;;9.47;;
19221;SDS011;9745;50.828;4.378;2022-12-07T08:51:39;17.83;;;9.63;;
19221;SDS011;9745;50.828;4.378;2022-12-07T08:54:06;23.93;;;13.97;;
19221;SDS011;9745;50.828;4.378;2022-12-07T08:56:42;27.13;;;13.00;;
19221;SDS011;9745;50.828;4.378;2022-12-07T08:59:19;19.27;;;11.77;;
19221;SDS011;9745;50.828;4.378;2022-12-07T09:01:48;18.30;;;11.20;;
19221;SDS011;9745;50.828;4.378;2022-12-07T09:04:15;16.00;;;10.67;;
19221;SDS011;9745;50.828;4.378;2022-12-07T09:06:41;21.03;;;10.33;;
19221;SDS011;9745;50.828;4.378;2022-12-07T09:09:10;15.77;;;8.60;;
19221;SDS011;9745;50.828;4.378;2022-12-07T09:11:37;14.83;;;8.07;;
19221;SDS011;9745;50.828;4.378;2022-12-07T09:14:04;13.47;;;7.67;;
19221;SDS011;9745;50.828;4.378;2022-12-07T09:16:39;14.37;;;7.30;;
19221;SDS011;9745;50.828;4.378;2022-12-07T09:19:05;13.60;;;7.53;;
19221;SDS011;9745;50.828;4.378;2022-12-07T09:21:31;14.97;;;6.63;;
19221;SDS011;9745;50.828;4.378;2022-12-07T09:23:58;9.20;;;6.13;;
19221;SDS011;9745;50.828;4.378;2022-12-07T09:26:24;12.27;;;7.17;;
19221;SDS011;9745;50.828;4.378;2022-12-07T09:28:53;16.03;;;10.00;;
19221;SDS011;9745;50.828;4.378;2022-12-07T09:31:19;14.57;;;8.73;;
19221;SDS011;9745;50.828;4.378;2022-12-07T09:33:45;14.00;;;7.43;;
19221;SDS011;9745;50.828;4.378;2022-12-07T09:36:11;9.43;;;6.80;;
19221;SDS011;9745;50.828;4.378;2022-12-07T09:38:37;11.90;;;6.03;;
19221;SDS011;9745;50.828;4.378;2022-12-07T09:41:03;11.83;;;5.70;;
19221;SDS011;9745;50.828;4.378;2022-12-07T09:43:30;11.83;;;6.33;;
19221;SDS011;9745;50.828;4.378;2022-12-07T09:45:56;11.70;;;5.67;;
19221;SDS011;9745;50.828;4.378;2022-12-07T09:48:26;10.27;;;6.47;;
19221;SDS011;9745;50.828;4.378;2022-12-07T09:50:53;10.93;;;6.43;;
19221;SDS011;9745;50.828;4.378;2022-12-07T09:53:24;13.50;;;6.63;;
19221;SDS011;9745;50.828;4.378;2022-12-07T09:55:51;12.87;;;6.07;;
19221;SDS011;9745;50.828;4.378;2022-12-07T09:58:25;11.10;;;7.27;;
19221;SDS011;9745;50.828;4.378;2022-12-07T10:01:08;12.00;;;6.27;;
19221;SDS011;9745;50.828;4.378;2022-12-07T10:03:36;13.90;;;7.17;;
19221;SDS011;9745;50.828;4.378;2022-12-07T10:06:03;9.00;;;5.60;;
19221;SDS011;9745;50.828;4.378;2022-12-07T10:08:30;14.13;;;5.93;;
19221;SDS011;9745;50.828;4.378;2022-12-07T10:10:56;11.13;;;5.67;;
19221;SDS011;9745;50.828;4.378;2022-12-07T10:13:36;13.53;;;5.60;;
19221;SDS011;9745;50.828;4.378;2022-12-07T10:16:03;9.27;;;6.10;;
19221;SDS011;9745;50.828;4.378;2022-12-07T10:18:30;14.53;;;5.50;;
19221;SDS011;9745;50.828;4.378;2022-12-07T10:21:30;11.70;;;6.10;;
19221;SDS011;9745;50.828;4.378;2022-12-07T10:26:35;12.93;;;6.83;;
19221;SDS011;9745;50.828;4.378;2022-12-07T10:29:23;13.53;;;5.77;;
19221;SDS011;9745;50.828;4.378;2022-12-07T10:31:57;12.47;;;5.60;;
19221;SDS011;9745;50.828;4.378;2022-12-07T10:34:25;10.83;;;5.57;;
19221;SDS011;9745;50.828;4.378;2022-12-07T10:36:53;9.63;;;4.80;;
19221;SDS011;9745;50.828;4.378;2022-12-07T10:39:32;8.93;;;5.40;;
19221;SDS011;9745;50.828;4.378;2022-12-07T10:42:08;11.47;;;6.17;;
19221;SDS011;9745;50.828;4.378;2022-12-07T10:44:38;11.47;;;5.17;;
19221;SDS011;9745;50.828;4.378;2022-12-07T10:47:25;11.37;;;5.33;;
19221;SDS011;9745;50.828;4.378;2022-12-07T10:52:43;12.20;;;5.80;;
19221;SDS011;9745;50.828;4.378;2022-12-07T10:55:14;8.33;;;4.87;;
19221;SDS011;9745;50.828;4.378;2022-12-07T10:57:52;9.70;;;4.87;;
19221;SDS011;9745;50.828;4.378;2022-12-07T11:02:59;13.20;;;6.10;;
19221;SDS011;9745;50.828;4.378;2022-12-07T11:05:39;9.63;;;5.10;;
19221;SDS011;9745;50.828;4.378;2022-12-07T11:08:13;10.30;;;5.47;;
19221;SDS011;9745;50.828;4.378;2022-12-07T11:13:34;10.53;;;4.90;;
19221;SDS011;9745;50.828;4.378;2022-12-07T11:18:39;11.33;;;4.33;;
19221;SDS011;9745;50.828;4.378;2022-12-07T11:21:30;11.63;;;4.53;;
19221;SDS011;9745;50.828;4.378;2022-12-07T11:26:32;11.40;;;4.50;;
19221;SDS011;9745;50.828;4.378;2022-12-07T11:34:08;7.60;;;4.40;;
19221;SDS011;9745;50.828;4.378;2022-12-07T11:36:41;9.23;;;3.80;;
19221;SDS011;9745;50.828;4.378;2022-12-07T11:39:12;10.60;;;4.13;;
19221;SDS011;9745;50.828;4.378;2022-12-07T11:41:40;7.37;;;3.53;;
19221;SDS011;9745;50.828;4.378;2022-12-07T11:46:47;8.43;;;3.60;;
19221;SDS011;9745;50.828;4.378;2022-12-07T11:50:01;9.33;;;3.60;;
19221;SDS011;9745;50.828;4.378;2022-12-07T11:52:06;10.60;;;3.77;;
19221;SDS011;9745;50.828;4.378;2022-12-07T11:54:36;6.80;;;3.60;;
19221;SDS011;9745;50.828;4.378;2022-12-07T11:57:09;12.43;;;3.90;;
19221;SDS011;9745;50.828;4.378;2022-12-07T11:59:36;8.93;;;3.87;;
19221;SDS011;9745;50.828;4.378;2022-12-07T12:04:47;9.33;;;3.63;;
19221;SDS011;9745;50.828;4.378;2022-12-07T12:07:17;9.67;;;3.63;;
19221;SDS011;9745;50.828;4.378;2022-12-07T12:09:48;12.23;;;4.20;;
19221;SDS011;9745;50.828;4.378;2022-12-07T12:12:31;5.23;;;3.60;;
19221;SDS011;9745;50.828;4.378;2022-12-07T12:17:56;5.53;;;3.13;;
19221;SDS011;9745;50.828;4.378;2022-12-07T12:20:31;4.50;;;2.37;;
19221;SDS011;9745;50.828;4.378;2022-12-07T12:23:00;5.03;;;2.90;;
19221;SDS011;9745;50.828;4.378;2022-12-07T12:25:34;8.10;;;2.60;;
19221;SDS011;9745;50.828;4.378;2022-12-07T12:28:02;4.80;;;2.33;;
19221;SDS011;9745;50.828;4.378;2022-12-07T12:30:35;7.80;;;2.63;;
19221;SDS011;9745;50.828;4.378;2022-12-07T12:33:06;5.93;;;2.73;;
19221;SDS011;9745;50.828;4.378;2022-12-07T12:35:38;8.90;;;2.27;;
19221;SDS011;9745;50.828;4.378;2022-12-07T12:38:25;10.37;;;3.33;;
19221;SDS011;9745;50.828;4.378;2022-12-07T12:40:55;8.20;;;2.20;;
19221;SDS011;9745;50.828;4.378;2022-12-07T12:48:52;6.07;;;2.43;;
19221;SDS011;9745;50.828;4.378;2022-12-07T12:51:37;5.07;;;2.37;;
19221;SDS011;9745;50.828;4.378;2022-12-07T12:54:05;33.63;;;12.00;;
19221;SDS011;9745;50.828;4.378;2022-12-07T13:01:47;10.37;;;3.67;;
19221;SDS011;9745;50.828;4.378;2022-12-07T13:07:10;8.60;;;3.20;;
19221;SDS011;9745;50.828;4.378;2022-12-07T13:09:36;6.13;;;2.50;;
19221;SDS011;9745;50.828;4.378;2022-12-07T13:12:11;8.33;;;2.40;;
19221;SDS011;9745;50.828;4.378;2022-12-07T13:14:42;7.57;;;2.83;;
19221;SDS011;9745;50.828;4.378;2022-12-07T13:20:39;10.00;;;2.40;;
19221;SDS011;9745;50.828;4.378;2022-12-07T13:23:03;6.03;;;2.30;;
19221;SDS011;9745;50.828;4.378;2022-12-07T13:25:31;5.50;;;2.00;;
19221;SDS011;9745;50.828;4.378;2022-12-07T13:28:07;6.77;;;2.50;;
19221;SDS011;9745;50.828;4.378;2022-12-07T13:30:59;7.13;;;2.57;;
19221;SDS011;9745;50.828;4.378;2022-12-07T13:33:26;9.17;;;3.43;;
19221;SDS011;9745;50.828;4.378;2022-12-07T13:35:55;8.60;;;2.20;;
19221;SDS011;9745;50.828;4.378;2022-12-07T13:38:31;6.00;;;2.40;;
19221;SDS011;9745;50.828;4.378;2022-12-07T13:41:13;5.67;;;2.20;;
19221;SDS011;9745;50.828;4.378;2022-12-07T13:43:43;6.67;;;2.50;;
19221;SDS011;9745;50.828;4.378;2022-12-07T13:46:10;7.37;;;3.10;;
19221;SDS011;9745;50.828;4.378;2022-12-07T13:48:46;6.40;;;2.33;;
19221;SDS011;9745;50.828;4.378;2022-12-07T13:51:17;4.90;;;2.77;;
19221;SDS011;9745;50.828;4.378;2022-12-07T13:53:48;6.77;;;2.60;;
19221;SDS011;9745;50.828;4.378;2022-12-07T13:56:14;6.37;;;3.40;;
19221;SDS011;9745;50.828;4.378;2022-12-07T13:58:43;6.90;;;2.83;;
19221;SDS011;9745;50.828;4.378;2022-12-07T14:01:10;7.57;;;2.57;;
19221;SDS011;9745;50.828;4.378;2022-12-07T14:03:38;9.93;;;2.80;;
19221;SDS011;9745;50.828;4.378;2022-12-07T14:06:06;8.67;;;2.00;;
19221;SDS011;9745;50.828;4.378;2022-12-07T14:08:33;8.13;;;2.27;;
19221;SDS011;9745;50.828;4.378;2022-12-07T14:16:23;8.50;;;2.47;;
19221;SDS011;9745;50.828;4.378;2022-12-07T14:18:53;4.40;;;1.63;;
19221;SDS011;9745;50.828;4.378;2022-12-07T14:21:20;5.03;;;1.60;;
19221;SDS011;9745;50.828;4.378;2022-12-07T14:27:00;7.63;;;1.80;;
19221;SDS011;9745;50.828;4.378;2022-12-07T14:31:53;6.93;;;1.70;;
19221;SDS011;9745;50.828;4.378;2022-12-07T14:34:20;5.83;;;1.90;;
19221;SDS011;9745;50.828;4.378;2022-12-07T14:36:46;5.90;;;2.00;;
19221;SDS011;9745;50.828;4.378;2022-12-07T14:39:13;4.50;;;2.37;;
19221;SDS011;9745;50.828;4.378;2022-12-07T14:41:39;6.03;;;2.57;;
19221;SDS011;9745;50.828;4.378;2022-12-07T14:44:20;6.33;;;2.70;;
19221;SDS011;9745;50.828;4.378;2022-12-07T14:46:47;7.63;;;2.50;;
19221;SDS011;9745;50.828;4.378;2022-12-07T14:55:20;11.20;;;2.83;;
19221;SDS011;9745;50.828;4.378;2022-12-07T14:57:48;3.87;;;2.00;;
19221;SDS011;9745;50.828;4.378;2022-12-07T15:00:14;4.57;;;1.50;;
19221;SDS011;9745;50.828;4.378;2022-12-07T15:02:44;6.70;;;1.90;;
19221;SDS011;9745;50.828;4.378;2022-12-07T15:05:13;4.60;;;1.83;;
19221;SDS011;9745;50.828;4.378;2022-12-07T15:07:39;6.60;;;2.37;;
19221;SDS011;9745;50.828;4.378;2022-12-07T15:10:05;4.33;;;1.67;;
19221;SDS011;9745;50.828;4.378;2022-12-07T15:12:32;3.53;;;2.00;;
19221;SDS011;9745;50.828;4.378;2022-12-07T15:14:58;3.37;;;1.70;;
19221;SDS011;9745;50.828;4.378;2022-12-07T15:17:26;4.40;;;2.10;;
19221;SDS011;9745;50.828;4.378;2022-12-07T15:19:52;5.13;;;2.07;;
19221;SDS011;9745;50.828;4.378;2022-12-07T15:22:20;6.33;;;2.50;;
19221;SDS011;9745;50.828;4.378;2022-12-07T15:24:49;5.10;;;2.80;;
19221;SDS011;9745;50.828;4.378;2022-12-07T15:27:15;7.80;;;3.23;;
19221;SDS011;9745;50.828;4.378;2022-12-07T15:29:41;11.10;;;3.40;;
19221;SDS011;9745;50.828;4.378;2022-12-07T15:32:11;6.20;;;2.33;;
19221;SDS011;9745;50.828;4.378;2022-12-07T15:34:40;4.83;;;1.97;;
19221;SDS011;9745;50.828;4.378;2022-12-07T15:37:06;5.43;;;2.10;;
19221;SDS011;9745;50.828;4.378;2022-12-07T15:39:32;7.37;;;2.47;;
19221;SDS011;9745;50.828;4.378;2022-12-07T15:41:58;5.17;;;2.73;;
19221;SDS011;9745;50.828;4.378;2022-12-07T15:44:24;4.93;;;2.70;;
19221;SDS011;9745;50.828;4.378;2022-12-07T15:47:09;6.60;;;3.10;;
19221;SDS011;9745;50.828;4.378;2022-12-07T15:49:35;4.67;;;2.63;;
19221;SDS011;9745;50.828;4.378;2022-12-07T15:55:19;5.73;;;3.03;;
19221;SDS011;9745;50.828;4.378;2022-12-07T15:57:51;6.77;;;3.07;;
19221;SDS011;9745;50.828;4.378;2022-12-07T16:00:35;9.57;;;3.87;;
19221;SDS011;9745;50.828;4.378;2022-12-07T16:03:03;3.77;;;2.67;;
19221;SDS011;9745;50.828;4.378;2022-12-07T16:05:29;4.83;;;2.90;;
19221;SDS011;9745;50.828;4.378;2022-12-07T16:07:58;6.93;;;3.37;;
19221;SDS011;9745;50.828;4.378;2022-12-07T16:10:26;6.83;;;3.27;;
19221;SDS011;9745;50.828;4.378;2022-12-07T16:12:54;8.30;;;3.43;;
19221;SDS011;9745;50.828;4.378;2022-12-07T16:15:20;8.13;;;3.77;;
19221;SDS011;9745;50.828;4.378;2022-12-07T16:17:49;6.40;;;3.30;;
19221;SDS011;9745;50.828;4.378;2022-12-07T16:20:17;7.93;;;3.40;;
19221;SDS011;9745;50.828;4.378;2022-12-07T16:22:43;7.80;;;3.60;;
19221;SDS011;9745;50.828;4.378;2022-12-07T16:25:10;7.50;;;3.53;;
19221;SDS011;9745;50.828;4.378;2022-12-07T16:27:36;10.33;;;4.10;;
19221;SDS011;9745;50.828;4.378;2022-12-07T16:30:02;8.23;;;3.63;;
19221;SDS011;9745;50.828;4.378;2022-12-07T16:32:31;9.10;;;3.57;;
19221;SDS011;9745;50.828;4.378;2022-12-07T16:34:57;6.97;;;3.63;;
19221;SDS011;9745;50.828;4.378;2022-12-07T16:37:23;4.60;;;3.27;;